sensor_id;sensor_type;location;lat;lon;timestamp;P1;durP1;ratioP1;P2;durP2;ratioP2
16770;SDS011;8503;52.472;13.344;2023-05-14T00:00:42;10.52;;;6.03;;
16770;SDS011;8503;52.472;13.344;2023-05-14T00:02:05;10.63;;;5.88;;
16770;SDS011;8503;52.472;13.344;2023-05-14T00:03:28;10.63;;;5.88;;
16770;SDS011;8503;52.472;13.344;2023-05-14T00:04:52;13.05;;;6.13;;
16770;SDS011;8503;52.472;13.344;2023-05-14T00:06:15;13.13;;;6.65;;
16770;SDS011;8503;52.472;13.344;2023-05-14T00:07:38;12.10;;;6.22;;
16770;SDS011;8503;52.472;13.344;2023-05-14T00:09:01;13.52;;;6.60;;
16770;SDS011;8503;52.472;13.344;2023-05-14T00:10:26;11.07;;;6.03;;
16770;SDS011;8503;52.472;13.344;2023-05-14T00:11:49;10.63;;;6.43;;
16770;SDS011;8503;52.472;13.344;2023-05-14T00:13:13;12.70;;;6.70;;
16770;SDS011;8503;52.472;13.344;2023-05-14T00:14:36;9.73;;;6.15;;
16770;SDS011;8503;52.472;13.344;2023-05-14T00:16:00;12.10;;;6.93;;
16770;SDS011;8503;52.472;13.344;2023-05-14T00:17:23;16.58;;;6.28;;
16770;SDS011;8503;52.472;13.344;2023-05-14T00:18:47;10.20;;;6.43;;
16770;SDS011;8503;52.472;13.344;2023-05-14T00:20:11;11.40;;;6.47;;
16770;SDS011;8503;52.472;13.344;2023-05-14T00:21:34;16.08;;;6.72;;
16770;SDS011;8503;52.472;13.344;2023-05-14T00:22:57;17.92;;;6.43;;
16770;SDS011;8503;52.472;13.344;2023-05-14T00:24:20;12.98;;;6.57;;
16770;SDS011;8503;52.472;13.344;2023-05-14T00:25:43;13.43;;;7.35;;
16770;SDS011;8503;52.472;13.344;2023-05-14T00:27:06;11.52;;;6.97;;
16770;SDS011;8503;52.472;13.344;2023-05-14T00:28:31;18.50;;;7.15;;
16770;SDS011;8503;52.472;13.344;2023-05-14T00:29:54;10.02;;;6.47;;
16770;SDS011;8503;52.472;13.344;2023-05-14T00:31:17;10.45;;;7.50;;
16770;SDS011;8503;52.472;13.344;2023-05-14T00:32:40;15.30;;;7.07;;
16770;SDS011;8503;52.472;13.344;2023-05-14T00:34:03;11.50;;;6.32;;
16770;SDS011;8503;52.472;13.344;2023-05-14T00:35:26;13.82;;;7.10;;
16770;SDS011;8503;52.472;13.344;2023-05-14T00:36:50;12.20;;;6.70;;
16770;SDS011;8503;52.472;13.344;2023-05-14T00:38:13;12.65;;;7.38;;
16770;SDS011;8503;52.472;13.344;2023-05-14T00:39:37;15.18;;;7.07;;
16770;SDS011;8503;52.472;13.344;2023-05-14T00:41:00;13.70;;;7.10;;
16770;SDS011;8503;52.472;13.344;2023-05-14T00:42:23;16.73;;;7.05;;
16770;SDS011;8503;52.472;13.344;2023-05-14T00:43:49;13.55;;;7.05;;
16770;SDS011;8503;52.472;13.344;2023-05-14T00:45:12;13.20;;;7.07;;
16770;SDS011;8503;52.472;13.344;2023-05-14T00:46:34;12.13;;;6.60;;
16770;SDS011;8503;52.472;13.344;2023-05-14T00:47:58;15.85;;;7.28;;
16770;SDS011;8503;52.472;13.344;2023-05-14T00:49:21;9.68;;;6.63;;
16770;SDS011;8503;52.472;13.344;2023-05-14T00:50:44;9.60;;;6.93;;
16770;SDS011;8503;52.472;13.344;2023-05-14T00:52:08;10.07;;;6.60;;
16770;SDS011;8503;52.472;13.344;2023-05-14T00:53:32;11.95;;;6.55;;
16770;SDS011;8503;52.472;13.344;2023-05-14T00:54:56;12.63;;;7.55;;
16770;SDS011;8503;52.472;13.344;2023-05-14T00:56:18;13.82;;;7.22;;
16770;SDS011;8503;52.472;13.344;2023-05-14T00:57:42;12.32;;;7.30;;
16770;SDS011;8503;52.472;13.344;2023-05-14T00:59:06;11.90;;;7.80;;
16770;SDS011;8503;52.472;13.344;2023-05-14T01:00:29;13.02;;;7.90;;
16770;SDS011;8503;52.472;13.344;2023-05-14T01:01:52;15.27;;;7.18;;
16770;SDS011;8503;52.472;13.344;2023-05-14T01:03:15;11.93;;;7.25;;
16770;SDS011;8503;52.472;13.344;2023-05-14T01:04:38;13.00;;;8.00;;
16770;SDS011;8503;52.472;13.344;2023-05-14T01:06:05;14.18;;;6.93;;
16770;SDS011;8503;52.472;13.344;2023-05-14T01:07:33;8.88;;;6.28;;
16770;SDS011;8503;52.472;13.344;2023-05-14T01:09:02;12.07;;;7.07;;
16770;SDS011;8503;52.472;13.344;2023-05-14T01:10:31;12.27;;;6.32;;
16770;SDS011;8503;52.472;13.344;2023-05-14T01:12:07;14.32;;;6.95;;
16770;SDS011;8503;52.472;13.344;2023-05-14T01:13:32;13.32;;;7.80;;
16770;SDS011;8503;52.472;13.344;2023-05-14T01:15:05;11.35;;;6.75;;
16770;SDS011;8503;52.472;13.344;2023-05-14T01:16:29;8.15;;;5.85;;
16770;SDS011;8503;52.472;13.344;2023-05-14T01:17:58;15.82;;;6.60;;
16770;SDS011;8503;52.472;13.344;2023-05-14T01:19:26;10.13;;;6.18;;
16770;SDS011;8503;52.472;13.344;2023-05-14T01:20:55;11.40;;;6.22;;
16770;SDS011;8503;52.472;13.344;2023-05-14T01:22:19;9.65;;;5.88;;
16770;SDS011;8503;52.472;13.344;2023-05-14T01:23:42;9.65;;;5.82;;
16770;SDS011;8503;52.472;13.344;2023-05-14T01:25:05;7.75;;;5.75;;
16770;SDS011;8503;52.472;13.344;2023-05-14T01:26:29;7.53;;;5.22;;
16770;SDS011;8503;52.472;13.344;2023-05-14T01:27:54;12.48;;;5.55;;
16770;SDS011;8503;52.472;13.344;2023-05-14T01:29:22;10.05;;;5.70;;
16770;SDS011;8503;52.472;13.344;2023-05-14T01:30:45;8.70;;;5.85;;
16770;SDS011;8503;52.472;13.344;2023-05-14T01:32:16;8.93;;;5.28;;
16770;SDS011;8503;52.472;13.344;2023-05-14T01:33:38;9.15;;;5.65;;
16770;SDS011;8503;52.472;13.344;2023-05-14T01:35:04;8.27;;;4.95;;
16770;SDS011;8503;52.472;13.344;2023-05-14T01:36:27;6.55;;;4.82;;
16770;SDS011;8503;52.472;13.344;2023-05-14T01:37:55;6.40;;;5.15;;
16770;SDS011;8503;52.472;13.344;2023-05-14T01:39:20;9.07;;;5.97;;
16770;SDS011;8503;52.472;13.344;2023-05-14T01:40:43;8.85;;;5.57;;
16770;SDS011;8503;52.472;13.344;2023-05-14T01:42:07;8.10;;;5.13;;
16770;SDS011;8503;52.472;13.344;2023-05-14T01:43:31;6.82;;;5.00;;
16770;SDS011;8503;52.472;13.344;2023-05-14T01:44:55;9.00;;;5.43;;
16770;SDS011;8503;52.472;13.344;2023-05-14T01:46:17;8.82;;;4.95;;
16770;SDS011;8503;52.472;13.344;2023-05-14T01:47:41;7.07;;;5.00;;
16770;SDS011;8503;52.472;13.344;2023-05-14T01:49:04;8.70;;;5.65;;
16770;SDS011;8503;52.472;13.344;2023-05-14T01:50:27;11.30;;;5.63;;
16770;SDS011;8503;52.472;13.344;2023-05-14T01:51:50;8.82;;;5.50;;
16770;SDS011;8503;52.472;13.344;2023-05-14T01:53:14;6.68;;;4.88;;
16770;SDS011;8503;52.472;13.344;2023-05-14T01:54:38;9.10;;;5.30;;
16770;SDS011;8503;52.472;13.344;2023-05-14T01:56:00;8.43;;;4.97;;
16770;SDS011;8503;52.472;13.344;2023-05-14T01:57:24;8.52;;;4.72;;
16770;SDS011;8503;52.472;13.344;2023-05-14T01:58:46;12.70;;;5.25;;
16770;SDS011;8503;52.472;13.344;2023-05-14T02:00:10;8.77;;;4.50;;
16770;SDS011;8503;52.472;13.344;2023-05-14T02:01:33;8.57;;;4.38;;
16770;SDS011;8503;52.472;13.344;2023-05-14T02:02:56;12.57;;;4.53;;
16770;SDS011;8503;52.472;13.344;2023-05-14T02:04:20;6.78;;;5.18;;
16770;SDS011;8503;52.472;13.344;2023-05-14T02:05:43;8.18;;;4.43;;
16770;SDS011;8503;52.472;13.344;2023-05-14T02:07:07;7.82;;;4.93;;
16770;SDS011;8503;52.472;13.344;2023-05-14T02:08:32;6.97;;;5.10;;
16770;SDS011;8503;52.472;13.344;2023-05-14T02:09:55;6.75;;;4.60;;
16770;SDS011;8503;52.472;13.344;2023-05-14T02:11:19;7.13;;;4.50;;
16770;SDS011;8503;52.472;13.344;2023-05-14T02:12:42;18.25;;;4.93;;
16770;SDS011;8503;52.472;13.344;2023-05-14T02:14:13;6.85;;;4.53;;
16770;SDS011;8503;52.472;13.344;2023-05-14T02:15:36;8.90;;;4.88;;
16770;SDS011;8503;52.472;13.344;2023-05-14T02:16:59;8.93;;;4.85;;
16770;SDS011;8503;52.472;13.344;2023-05-14T02:18:23;13.07;;;4.53;;
16770;SDS011;8503;52.472;13.344;2023-05-14T02:19:48;5.60;;;4.35;;
16770;SDS011;8503;52.472;13.344;2023-05-14T02:21:12;9.32;;;5.10;;
16770;SDS011;8503;52.472;13.344;2023-05-14T02:22:34;8.95;;;5.10;;
16770;SDS011;8503;52.472;13.344;2023-05-14T02:23:59;8.10;;;4.35;;
16770;SDS011;8503;52.472;13.344;2023-05-14T02:25:23;6.15;;;4.90;;
16770;SDS011;8503;52.472;13.344;2023-05-14T02:26:45;6.15;;;4.50;;
16770;SDS011;8503;52.472;13.344;2023-05-14T02:28:09;6.00;;;4.38;;
16770;SDS011;8503;52.472;13.344;2023-05-14T02:29:31;6.85;;;4.38;;
16770;SDS011;8503;52.472;13.344;2023-05-14T02:30:57;6.22;;;4.38;;
16770;SDS011;8503;52.472;13.344;2023-05-14T02:32:20;7.88;;;3.78;;
16770;SDS011;8503;52.472;13.344;2023-05-14T02:33:43;9.27;;;5.10;;
16770;SDS011;8503;52.472;13.344;2023-05-14T02:35:07;5.40;;;4.03;;
16770;SDS011;8503;52.472;13.344;2023-05-14T02:36:31;5.97;;;4.38;;
16770;SDS011;8503;52.472;13.344;2023-05-14T02:37:54;5.47;;;4.00;;
16770;SDS011;8503;52.472;13.344;2023-05-14T02:39:18;5.53;;;3.85;;
16770;SDS011;8503;52.472;13.344;2023-05-14T02:40:42;5.63;;;3.53;;
16770;SDS011;8503;52.472;13.344;2023-05-14T02:42:05;8.68;;;5.15;;
16770;SDS011;8503;52.472;13.344;2023-05-14T02:43:29;6.45;;;4.35;;
16770;SDS011;8503;52.472;13.344;2023-05-14T02:44:51;7.20;;;4.30;;
16770;SDS011;8503;52.472;13.344;2023-05-14T02:46:15;13.52;;;4.47;;
16770;SDS011;8503;52.472;13.344;2023-05-14T02:47:38;7.05;;;4.25;;
16770;SDS011;8503;52.472;13.344;2023-05-14T02:49:02;6.35;;;4.07;;
16770;SDS011;8503;52.472;13.344;2023-05-14T02:50:25;6.28;;;3.97;;
16770;SDS011;8503;52.472;13.344;2023-05-14T02:51:48;6.68;;;3.97;;
16770;SDS011;8503;52.472;13.344;2023-05-14T02:53:11;5.20;;;4.20;;
16770;SDS011;8503;52.472;13.344;2023-05-14T02:54:36;11.30;;;4.20;;
16770;SDS011;8503;52.472;13.344;2023-05-14T02:55:59;10.23;;;4.20;;
16770;SDS011;8503;52.472;13.344;2023-05-14T02:57:22;8.10;;;3.85;;
16770;SDS011;8503;52.472;13.344;2023-05-14T02:58:45;8.43;;;3.97;;
16770;SDS011;8503;52.472;13.344;2023-05-14T03:00:10;14.32;;;4.40;;
16770;SDS011;8503;52.472;13.344;2023-05-14T03:01:34;5.68;;;4.10;;
16770;SDS011;8503;52.472;13.344;2023-05-14T03:02:57;5.18;;;3.80;;
16770;SDS011;8503;52.472;13.344;2023-05-14T03:04:21;7.07;;;4.50;;
16770;SDS011;8503;52.472;13.344;2023-05-14T03:05:45;10.30;;;4.15;;
16770;SDS011;8503;52.472;13.344;2023-05-14T03:07:08;5.57;;;3.90;;
16770;SDS011;8503;52.472;13.344;2023-05-14T03:08:30;6.88;;;4.10;;
16770;SDS011;8503;52.472;13.344;2023-05-14T03:09:55;6.80;;;4.10;;
16770;SDS011;8503;52.472;13.344;2023-05-14T03:11:20;6.53;;;3.75;;
16770;SDS011;8503;52.472;13.344;2023-05-14T03:12:44;7.93;;;4.25;;
16770;SDS011;8503;52.472;13.344;2023-05-14T03:14:07;10.05;;;4.22;;
16770;SDS011;8503;52.472;13.344;2023-05-14T03:15:31;6.72;;;3.97;;
16770;SDS011;8503;52.472;13.344;2023-05-14T03:16:53;8.75;;;4.75;;
16770;SDS011;8503;52.472;13.344;2023-05-14T03:18:17;4.65;;;4.13;;
16770;SDS011;8503;52.472;13.344;2023-05-14T03:19:40;7.22;;;4.22;;
16770;SDS011;8503;52.472;13.344;2023-05-14T03:21:05;6.40;;;3.90;;
16770;SDS011;8503;52.472;13.344;2023-05-14T03:22:29;11.40;;;4.60;;
16770;SDS011;8503;52.472;13.344;2023-05-14T03:23:52;7.90;;;4.28;;
16770;SDS011;8503;52.472;13.344;2023-05-14T03:25:16;9.52;;;4.03;;
16770;SDS011;8503;52.472;13.344;2023-05-14T03:26:41;6.30;;;3.97;;
16770;SDS011;8503;52.472;13.344;2023-05-14T03:28:04;7.85;;;4.40;;
16770;SDS011;8503;52.472;13.344;2023-05-14T03:29:27;6.15;;;4.25;;
16770;SDS011;8503;52.472;13.344;2023-05-14T03:30:50;5.88;;;3.97;;
16770;SDS011;8503;52.472;13.344;2023-05-14T03:32:16;11.93;;;4.13;;
16770;SDS011;8503;52.472;13.344;2023-05-14T03:33:40;5.95;;;4.78;;
16770;SDS011;8503;52.472;13.344;2023-05-14T03:35:04;7.00;;;4.15;;
16770;SDS011;8503;52.472;13.344;2023-05-14T03:36:28;5.38;;;4.43;;
16770;SDS011;8503;52.472;13.344;2023-05-14T03:37:52;7.15;;;4.53;;
16770;SDS011;8503;52.472;13.344;2023-05-14T03:39:14;8.55;;;4.35;;
16770;SDS011;8503;52.472;13.344;2023-05-14T03:40:41;6.25;;;4.43;;
16770;SDS011;8503;52.472;13.344;2023-05-14T03:42:05;6.82;;;4.53;;
16770;SDS011;8503;52.472;13.344;2023-05-14T03:43:29;11.50;;;4.45;;
16770;SDS011;8503;52.472;13.344;2023-05-14T03:44:53;8.38;;;4.70;;
16770;SDS011;8503;52.472;13.344;2023-05-14T03:46:18;10.13;;;4.70;;
16770;SDS011;8503;52.472;13.344;2023-05-14T03:47:40;10.95;;;4.07;;
16770;SDS011;8503;52.472;13.344;2023-05-14T03:49:04;11.30;;;4.70;;
16770;SDS011;8503;52.472;13.344;2023-05-14T03:50:28;7.05;;;4.63;;
16770;SDS011;8503;52.472;13.344;2023-05-14T03:51:52;11.07;;;5.03;;
16770;SDS011;8503;52.472;13.344;2023-05-14T03:53:15;9.35;;;4.90;;
16770;SDS011;8503;52.472;13.344;2023-05-14T03:54:38;10.20;;;4.57;;
16770;SDS011;8503;52.472;13.344;2023-05-14T03:56:03;6.60;;;4.63;;
16770;SDS011;8503;52.472;13.344;2023-05-14T03:57:25;9.48;;;4.38;;
16770;SDS011;8503;52.472;13.344;2023-05-14T03:58:49;7.20;;;4.65;;
16770;SDS011;8503;52.472;13.344;2023-05-14T04:00:13;9.57;;;4.65;;
16770;SDS011;8503;52.472;13.344;2023-05-14T04:01:36;9.05;;;4.90;;
16770;SDS011;8503;52.472;13.344;2023-05-14T04:02:59;8.88;;;4.65;;
16770;SDS011;8503;52.472;13.344;2023-05-14T04:04:23;4.93;;;4.20;;
16770;SDS011;8503;52.472;13.344;2023-05-14T04:05:46;8.63;;;5.00;;
16770;SDS011;8503;52.472;13.344;2023-05-14T04:07:09;6.32;;;4.18;;
16770;SDS011;8503;52.472;13.344;2023-05-14T04:08:33;12.38;;;5.18;;
16770;SDS011;8503;52.472;13.344;2023-05-14T04:09:55;7.75;;;4.95;;
16770;SDS011;8503;52.472;13.344;2023-05-14T04:11:24;6.38;;;4.38;;
16770;SDS011;8503;52.472;13.344;2023-05-14T04:12:47;6.53;;;5.00;;
16770;SDS011;8503;52.472;13.344;2023-05-14T04:14:10;9.63;;;4.47;;
16770;SDS011;8503;52.472;13.344;2023-05-14T04:15:33;8.30;;;4.43;;
16770;SDS011;8503;52.472;13.344;2023-05-14T04:16:56;13.35;;;4.50;;
16770;SDS011;8503;52.472;13.344;2023-05-14T04:18:20;8.60;;;5.05;;
16770;SDS011;8503;52.472;13.344;2023-05-14T04:19:44;8.48;;;4.72;;
16770;SDS011;8503;52.472;13.344;2023-05-14T04:21:07;9.88;;;4.80;;
16770;SDS011;8503;52.472;13.344;2023-05-14T04:22:30;8.98;;;4.95;;
16770;SDS011;8503;52.472;13.344;2023-05-14T04:23:54;5.70;;;4.38;;
16770;SDS011;8503;52.472;13.344;2023-05-14T04:25:19;7.03;;;4.72;;
16770;SDS011;8503;52.472;13.344;2023-05-14T04:26:43;7.65;;;4.65;;
16770;SDS011;8503;52.472;13.344;2023-05-14T04:28:09;8.43;;;4.53;;
16770;SDS011;8503;52.472;13.344;2023-05-14T04:29:32;10.35;;;4.40;;
16770;SDS011;8503;52.472;13.344;2023-05-14T04:30:54;8.98;;;5.00;;
16770;SDS011;8503;52.472;13.344;2023-05-14T04:32:18;7.53;;;4.75;;
16770;SDS011;8503;52.472;13.344;2023-05-14T04:33:43;9.18;;;4.80;;
16770;SDS011;8503;52.472;13.344;2023-05-14T04:35:07;5.78;;;4.28;;
16770;SDS011;8503;52.472;13.344;2023-05-14T04:36:30;6.78;;;4.70;;
16770;SDS011;8503;52.472;13.344;2023-05-14T04:37:53;7.90;;;4.97;;
16770;SDS011;8503;52.472;13.344;2023-05-14T04:39:16;8.77;;;4.90;;
16770;SDS011;8503;52.472;13.344;2023-05-14T04:40:39;6.40;;;4.47;;
16770;SDS011;8503;52.472;13.344;2023-05-14T04:42:04;11.02;;;4.65;;
16770;SDS011;8503;52.472;13.344;2023-05-14T04:43:29;9.43;;;4.63;;
16770;SDS011;8503;52.472;13.344;2023-05-14T04:44:51;6.88;;;4.43;;
16770;SDS011;8503;52.472;13.344;2023-05-14T04:46:15;6.53;;;4.45;;
16770;SDS011;8503;52.472;13.344;2023-05-14T04:47:38;8.60;;;4.60;;
16770;SDS011;8503;52.472;13.344;2023-05-14T04:49:01;9.90;;;4.43;;
16770;SDS011;8503;52.472;13.344;2023-05-14T04:50:26;7.25;;;3.92;;
16770;SDS011;8503;52.472;13.344;2023-05-14T04:51:48;10.30;;;4.88;;
16770;SDS011;8503;52.472;13.344;2023-05-14T04:53:12;10.30;;;5.57;;
16770;SDS011;8503;52.472;13.344;2023-05-14T04:54:35;7.60;;;4.30;;
16770;SDS011;8503;52.472;13.344;2023-05-14T04:56:00;8.07;;;4.80;;
16770;SDS011;8503;52.472;13.344;2023-05-14T04:57:25;5.95;;;4.57;;
16770;SDS011;8503;52.472;13.344;2023-05-14T04:58:48;8.27;;;4.70;;
16770;SDS011;8503;52.472;13.344;2023-05-14T05:00:11;9.18;;;5.38;;
16770;SDS011;8503;52.472;13.344;2023-05-14T05:01:34;9.65;;;5.00;;
16770;SDS011;8503;52.472;13.344;2023-05-14T05:02:58;8.88;;;5.20;;
16770;SDS011;8503;52.472;13.344;2023-05-14T05:04:22;11.63;;;5.07;;
16770;SDS011;8503;52.472;13.344;2023-05-14T05:05:44;9.57;;;4.53;;
16770;SDS011;8503;52.472;13.344;2023-05-14T05:07:08;6.22;;;4.72;;
16770;SDS011;8503;52.472;13.344;2023-05-14T05:08:30;5.97;;;4.57;;
16770;SDS011;8503;52.472;13.344;2023-05-14T05:09:54;6.40;;;4.93;;
16770;SDS011;8503;52.472;13.344;2023-05-14T05:11:16;7.82;;;5.25;;
16770;SDS011;8503;52.472;13.344;2023-05-14T05:12:41;5.78;;;4.18;;
16770;SDS011;8503;52.472;13.344;2023-05-14T05:14:05;16.90;;;4.60;;
16770;SDS011;8503;52.472;13.344;2023-05-14T05:15:27;7.95;;;4.10;;
16770;SDS011;8503;52.472;13.344;2023-05-14T05:16:51;9.80;;;4.28;;
16770;SDS011;8503;52.472;13.344;2023-05-14T05:18:15;8.32;;;4.65;;
16770;SDS011;8503;52.472;13.344;2023-05-14T05:19:37;8.95;;;4.28;;
16770;SDS011;8503;52.472;13.344;2023-05-14T05:21:04;8.45;;;4.75;;
16770;SDS011;8503;52.472;13.344;2023-05-14T05:22:28;9.82;;;4.38;;
16770;SDS011;8503;52.472;13.344;2023-05-14T05:23:50;8.48;;;4.30;;
16770;SDS011;8503;52.472;13.344;2023-05-14T05:25:14;10.07;;;4.43;;
16770;SDS011;8503;52.472;13.344;2023-05-14T05:26:37;7.63;;;4.10;;
16770;SDS011;8503;52.472;13.344;2023-05-14T05:28:01;12.95;;;4.53;;
16770;SDS011;8503;52.472;13.344;2023-05-14T05:29:25;9.02;;;4.65;;
16770;SDS011;8503;52.472;13.344;2023-05-14T05:30:47;8.85;;;4.53;;
16770;SDS011;8503;52.472;13.344;2023-05-14T05:32:11;5.75;;;4.63;;
16770;SDS011;8503;52.472;13.344;2023-05-14T05:33:33;8.80;;;4.68;;
16770;SDS011;8503;52.472;13.344;2023-05-14T05:34:58;11.48;;;4.85;;
16770;SDS011;8503;52.472;13.344;2023-05-14T05:36:21;7.60;;;4.43;;
16770;SDS011;8503;52.472;13.344;2023-05-14T05:37:45;6.47;;;4.55;;
16770;SDS011;8503;52.472;13.344;2023-05-14T05:39:07;7.03;;;4.80;;
16770;SDS011;8503;52.472;13.344;2023-05-14T05:40:32;5.93;;;4.20;;
16770;SDS011;8503;52.472;13.344;2023-05-14T05:41:55;7.93;;;4.20;;
16770;SDS011;8503;52.472;13.344;2023-05-14T05:43:19;10.68;;;3.90;;
16770;SDS011;8503;52.472;13.344;2023-05-14T05:44:43;7.18;;;3.67;;
16770;SDS011;8503;52.472;13.344;2023-05-14T05:46:06;7.82;;;4.53;;
16770;SDS011;8503;52.472;13.344;2023-05-14T05:47:30;7.00;;;3.97;;
16770;SDS011;8503;52.472;13.344;2023-05-14T05:48:52;6.78;;;4.70;;
16770;SDS011;8503;52.472;13.344;2023-05-14T05:50:16;9.30;;;4.78;;
16770;SDS011;8503;52.472;13.344;2023-05-14T05:51:40;9.20;;;4.35;;
16770;SDS011;8503;52.472;13.344;2023-05-14T05:53:03;10.65;;;4.78;;
16770;SDS011;8503;52.472;13.344;2023-05-14T05:54:27;10.10;;;4.22;;
16770;SDS011;8503;52.472;13.344;2023-05-14T05:55:53;8.77;;;4.40;;
16770;SDS011;8503;52.472;13.344;2023-05-14T05:57:18;7.95;;;4.25;;
16770;SDS011;8503;52.472;13.344;2023-05-14T05:58:47;10.68;;;4.22;;
16770;SDS011;8503;52.472;13.344;2023-05-14T06:00:12;9.30;;;4.68;;
16770;SDS011;8503;52.472;13.344;2023-05-14T06:01:37;5.88;;;3.97;;
16770;SDS011;8503;52.472;13.344;2023-05-14T06:03:01;10.80;;;4.40;;
16770;SDS011;8503;52.472;13.344;2023-05-14T06:04:24;8.40;;;4.50;;
16770;SDS011;8503;52.472;13.344;2023-05-14T06:05:47;7.55;;;4.28;;
16770;SDS011;8503;52.472;13.344;2023-05-14T06:07:10;10.63;;;4.50;;
16770;SDS011;8503;52.472;13.344;2023-05-14T06:08:34;8.65;;;4.53;;
16770;SDS011;8503;52.472;13.344;2023-05-14T06:09:56;6.60;;;3.55;;
16770;SDS011;8503;52.472;13.344;2023-05-14T06:11:20;7.57;;;4.13;;
16770;SDS011;8503;52.472;13.344;2023-05-14T06:12:43;10.90;;;4.43;;
16770;SDS011;8503;52.472;13.344;2023-05-14T06:14:08;4.82;;;3.83;;
16770;SDS011;8503;52.472;13.344;2023-05-14T06:15:31;14.00;;;4.45;;
16770;SDS011;8503;52.472;13.344;2023-05-14T06:16:54;8.48;;;4.18;;
16770;SDS011;8503;52.472;13.344;2023-05-14T06:18:18;10.18;;;3.97;;
16770;SDS011;8503;52.472;13.344;2023-05-14T06:19:42;7.63;;;4.20;;
16770;SDS011;8503;52.472;13.344;2023-05-14T06:21:05;8.32;;;3.65;;
16770;SDS011;8503;52.472;13.344;2023-05-14T06:22:29;5.13;;;4.38;;
16770;SDS011;8503;52.472;13.344;2023-05-14T06:23:52;5.55;;;4.10;;
16770;SDS011;8503;52.472;13.344;2023-05-14T06:25:17;7.65;;;4.38;;
16770;SDS011;8503;52.472;13.344;2023-05-14T06:26:40;5.97;;;4.20;;
16770;SDS011;8503;52.472;13.344;2023-05-14T06:28:04;9.70;;;4.15;;
16770;SDS011;8503;52.472;13.344;2023-05-14T06:29:29;11.30;;;5.18;;
16770;SDS011;8503;52.472;13.344;2023-05-14T06:30:52;8.20;;;4.55;;
16770;SDS011;8503;52.472;13.344;2023-05-14T06:32:16;7.20;;;3.88;;
16770;SDS011;8503;52.472;13.344;2023-05-14T06:33:38;6.13;;;4.00;;
16770;SDS011;8503;52.472;13.344;2023-05-14T06:35:02;6.80;;;4.20;;
16770;SDS011;8503;52.472;13.344;2023-05-14T06:36:27;6.32;;;4.65;;
16770;SDS011;8503;52.472;13.344;2023-05-14T06:37:50;13.43;;;4.35;;
16770;SDS011;8503;52.472;13.344;2023-05-14T06:39:13;8.93;;;4.10;;
16770;SDS011;8503;52.472;13.344;2023-05-14T06:40:37;10.52;;;4.47;;
16770;SDS011;8503;52.472;13.344;2023-05-14T06:42:01;9.43;;;4.75;;
16770;SDS011;8503;52.472;13.344;2023-05-14T06:43:25;7.18;;;5.03;;
16770;SDS011;8503;52.472;13.344;2023-05-14T06:44:49;4.55;;;3.55;;
16770;SDS011;8503;52.472;13.344;2023-05-14T06:46:12;6.75;;;4.13;;
16770;SDS011;8503;52.472;13.344;2023-05-14T06:47:38;5.53;;;4.15;;
16770;SDS011;8503;52.472;13.344;2023-05-14T06:49:01;5.82;;;3.75;;
16770;SDS011;8503;52.472;13.344;2023-05-14T06:50:24;8.77;;;4.43;;
16770;SDS011;8503;52.472;13.344;2023-05-14T06:51:47;11.43;;;4.60;;
16770;SDS011;8503;52.472;13.344;2023-05-14T06:53:11;7.65;;;3.95;;
16770;SDS011;8503;52.472;13.344;2023-05-14T06:54:35;7.00;;;3.95;;
16770;SDS011;8503;52.472;13.344;2023-05-14T06:55:57;6.63;;;4.15;;
16770;SDS011;8503;52.472;13.344;2023-05-14T06:57:21;11.13;;;4.78;;
16770;SDS011;8503;52.472;13.344;2023-05-14T06:58:44;5.85;;;4.03;;
16770;SDS011;8503;52.472;13.344;2023-05-14T07:00:10;7.13;;;4.63;;
16770;SDS011;8503;52.472;13.344;2023-05-14T07:01:34;6.35;;;3.55;;
16770;SDS011;8503;52.472;13.344;2023-05-14T07:02:58;8.20;;;4.25;;
16770;SDS011;8503;52.472;13.344;2023-05-14T07:04:22;5.70;;;3.58;;
16770;SDS011;8503;52.472;13.344;2023-05-14T07:05:45;5.40;;;4.25;;
16770;SDS011;8503;52.472;13.344;2023-05-14T07:07:09;6.10;;;4.05;;
16770;SDS011;8503;52.472;13.344;2023-05-14T07:08:35;6.60;;;4.15;;
16770;SDS011;8503;52.472;13.344;2023-05-14T07:09:59;6.93;;;4.45;;
16770;SDS011;8503;52.472;13.344;2023-05-14T07:11:22;7.22;;;4.05;;
16770;SDS011;8503;52.472;13.344;2023-05-14T07:12:46;7.72;;;4.28;;
16770;SDS011;8503;52.472;13.344;2023-05-14T07:14:09;7.60;;;4.43;;
16770;SDS011;8503;52.472;13.344;2023-05-14T07:15:34;9.88;;;4.53;;
16770;SDS011;8503;52.472;13.344;2023-05-14T07:16:58;9.18;;;3.95;;
16770;SDS011;8503;52.472;13.344;2023-05-14T07:18:22;8.00;;;3.95;;
16770;SDS011;8503;52.472;13.344;2023-05-14T07:19:44;5.22;;;3.42;;
16770;SDS011;8503;52.472;13.344;2023-05-14T07:21:08;9.60;;;4.78;;
16770;SDS011;8503;52.472;13.344;2023-05-14T07:22:32;8.95;;;4.05;;
16770;SDS011;8503;52.472;13.344;2023-05-14T07:23:56;5.82;;;3.17;;
16770;SDS011;8503;52.472;13.344;2023-05-14T07:25:19;10.52;;;4.70;;
16770;SDS011;8503;52.472;13.344;2023-05-14T07:26:43;4.82;;;3.30;;
16770;SDS011;8503;52.472;13.344;2023-05-14T07:28:07;8.68;;;3.65;;
16770;SDS011;8503;52.472;13.344;2023-05-14T07:29:30;14.40;;;3.80;;
16770;SDS011;8503;52.472;13.344;2023-05-14T07:30:56;6.80;;;3.63;;
16770;SDS011;8503;52.472;13.344;2023-05-14T07:32:20;6.68;;;3.90;;
16770;SDS011;8503;52.472;13.344;2023-05-14T07:33:45;7.93;;;3.30;;
16770;SDS011;8503;52.472;13.344;2023-05-14T07:35:08;7.70;;;3.78;;
16770;SDS011;8503;52.472;13.344;2023-05-14T07:36:32;7.85;;;3.53;;
16770;SDS011;8503;52.472;13.344;2023-05-14T07:37:56;4.93;;;3.50;;
16770;SDS011;8503;52.472;13.344;2023-05-14T07:39:20;6.43;;;3.20;;
16770;SDS011;8503;52.472;13.344;2023-05-14T07:40:42;6.13;;;3.10;;
16770;SDS011;8503;52.472;13.344;2023-05-14T07:42:06;10.65;;;3.35;;
16770;SDS011;8503;52.472;13.344;2023-05-14T07:43:29;6.63;;;3.83;;
16770;SDS011;8503;52.472;13.344;2023-05-14T07:44:53;4.43;;;2.88;;
16770;SDS011;8503;52.472;13.344;2023-05-14T07:46:16;7.28;;;3.38;;
16770;SDS011;8503;52.472;13.344;2023-05-14T07:47:40;4.43;;;3.17;;
16770;SDS011;8503;52.472;13.344;2023-05-14T07:49:04;5.25;;;3.08;;
16770;SDS011;8503;52.472;13.344;2023-05-14T07:50:28;3.97;;;3.05;;
16770;SDS011;8503;52.472;13.344;2023-05-14T07:51:51;5.00;;;2.95;;
16770;SDS011;8503;52.472;13.344;2023-05-14T07:53:14;3.35;;;2.50;;
16770;SDS011;8503;52.472;13.344;2023-05-14T07:54:39;7.55;;;3.33;;
16770;SDS011;8503;52.472;13.344;2023-05-14T07:56:02;4.18;;;2.90;;
16770;SDS011;8503;52.472;13.344;2023-05-14T07:57:26;3.78;;;2.70;;
16770;SDS011;8503;52.472;13.344;2023-05-14T07:58:48;2.60;;;2.25;;
16770;SDS011;8503;52.472;13.344;2023-05-14T08:00:12;4.15;;;3.08;;
16770;SDS011;8503;52.472;13.344;2023-05-14T08:01:38;2.13;;;1.83;;
16770;SDS011;8503;52.472;13.344;2023-05-14T08:03:02;4.10;;;2.90;;
16770;SDS011;8503;52.472;13.344;2023-05-14T08:04:26;4.50;;;2.85;;
16770;SDS011;8503;52.472;13.344;2023-05-14T08:05:49;5.72;;;2.85;;
16770;SDS011;8503;52.472;13.344;2023-05-14T08:07:13;4.60;;;2.85;;
16770;SDS011;8503;52.472;13.344;2023-05-14T08:08:36;5.13;;;3.05;;
16770;SDS011;8503;52.472;13.344;2023-05-14T08:10:00;5.25;;;3.17;;
16770;SDS011;8503;52.472;13.344;2023-05-14T08:11:24;3.88;;;2.42;;
16770;SDS011;8503;52.472;13.344;2023-05-14T08:12:47;4.70;;;2.47;;
16770;SDS011;8503;52.472;13.344;2023-05-14T08:14:10;5.53;;;2.60;;
16770;SDS011;8503;52.472;13.344;2023-05-14T08:15:33;4.07;;;2.70;;
16770;SDS011;8503;52.472;13.344;2023-05-14T08:16:58;5.20;;;2.97;;
16770;SDS011;8503;52.472;13.344;2023-05-14T08:18:22;4.28;;;2.53;;
16770;SDS011;8503;52.472;13.344;2023-05-14T08:19:44;5.70;;;2.83;;
16770;SDS011;8503;52.472;13.344;2023-05-14T08:21:08;5.80;;;2.75;;
16770;SDS011;8503;52.472;13.344;2023-05-14T08:22:32;3.45;;;2.85;;